PWSweather.com
Personal Weather Stations
Station Observations
VA3TWT
Blenheim Ontario, Blenheim, ON N0P 1A0

Blenheim OntarioBlenheim, ON N0P 1A0

Lat: 42.338464, Lon: -81.988628

Elevation: 688.976

Station Type: Davis vantage Pro2

Latest ConditionsUpdated 4:20:00 AM EDT Monday, Aug 26, 2019
Currently Today's Max Today's Min Today's Average
Temperature 66.9°F19.4°C 68.7°F20.4°C 66.9°F19.4°C 67.9°F19.9°C
Dew Point 57.7°F14.3°C 58.3°F14.6°C 56.7°F13.7°C 57.6°F14.2°C
Winds 6.0 mph SSW9.7 kmh SSW 7.0 mph -11.3 kmh - - 5.8 mph 9.3 kmh
Wind Gusts 13.0 mph20.9 kmh 14.0 mph22.5 kmh - -
Humidity 72% 73% 67% 70%
Pressure 30.09 in1019.0 mb 30.13 in1020.3 mb 30.08 in1018.6 mb -
Hour Temp Dew Point Humidity Winds Wind Gusts Pressure Precip Precip Rate Daily Precip Total
04:20 AM 66.9°F19.4°C 57.7°F14.3°C 72% 6.0 mph SSW9.7 kmh SSW 13.0 mph20.9 kmh 30.09 in1019.0 mb 0.00 in0.0 mm 0.00 in0.0 mm 0.00 in0.0 mm
04:10 AM 67.1°F19.5°C 58.1°F14.5°C 73% 6.0 mph SSW9.7 kmh SSW 10.0 mph16.1 kmh 30.09 in1019.0 mb 0.00 in0.0 mm 0.00 in0.0 mm 0.00 in0.0 mm
04:00 AM 67.3°F19.6°C 58.3°F14.6°C 73% 6.0 mph SSW9.7 kmh SSW 13.0 mph20.9 kmh 30.09 in1019.0 mb 0.00 in0.0 mm 0.00 in0.0 mm 0.00 in0.0 mm
03:50 AM 67.5°F19.7°C 58.1°F14.5°C 72% 6.0 mph SSW9.7 kmh SSW 10.0 mph16.1 kmh 30.09 in1019.0 mb 0.00 in0.0 mm 0.00 in0.0 mm 0.00 in0.0 mm
03:40 AM 67.6°F19.8°C 57.9°F14.4°C 71% 6.0 mph SSW9.7 kmh SSW 13.0 mph20.9 kmh 30.08 in1018.6 mb 0.00 in0.0 mm 0.00 in0.0 mm 0.00 in0.0 mm
03:30 AM 67.6°F19.8°C 57.9°F14.4°C 71% 6.0 mph SSW9.7 kmh SSW 12.0 mph19.3 kmh 30.09 in1019.0 mb 0.00 in0.0 mm 0.00 in0.0 mm 0.00 in0.0 mm
03:20 AM 67.8°F19.9°C 58.1°F14.5°C 71% 7.0 mph SSW11.3 kmh SSW 12.0 mph19.3 kmh 30.09 in1019.0 mb 0.00 in0.0 mm 0.00 in0.0 mm 0.00 in0.0 mm
03:10 AM 68.2°F20.1°C 57.9°F14.4°C 70% 6.0 mph SSW9.7 kmh SSW 13.0 mph20.9 kmh 30.09 in1019.0 mb 0.00 in0.0 mm 0.00 in0.0 mm 0.00 in0.0 mm
03:00 AM 68.2°F20.1°C 57.6°F14.2°C 69% 6.0 mph SSW9.7 kmh SSW 13.0 mph20.9 kmh 30.09 in1019.0 mb 0.00 in0.0 mm 0.00 in0.0 mm 0.00 in0.0 mm
02:50 AM 68.0°F20.0°C 57.9°F14.4°C 70% 5.0 mph SSW8.0 kmh SSW 10.0 mph16.1 kmh 30.09 in1019.0 mb 0.00 in0.0 mm 0.00 in0.0 mm 0.00 in0.0 mm
02:40 AM 68.2°F20.1°C 58.1°F14.5°C 70% 5.0 mph SSW8.0 kmh SSW 13.0 mph20.9 kmh 30.10 in1019.3 mb 0.00 in0.0 mm 0.00 in0.0 mm 0.00 in0.0 mm
02:30 AM 68.2°F20.1°C 57.6°F14.2°C 69% 4.0 mph SSW6.4 kmh SSW 10.0 mph16.1 kmh 30.10 in1019.3 mb 0.00 in0.0 mm 0.00 in0.0 mm 0.00 in0.0 mm
02:20 AM 67.8°F19.9°C 57.2°F14.0°C 69% 5.0 mph SSW8.0 kmh SSW 12.0 mph19.3 kmh 30.10 in1019.3 mb 0.00 in0.0 mm 0.00 in0.0 mm 0.00 in0.0 mm
02:10 AM 67.5°F19.7°C 57.4°F14.1°C 70% 5.0 mph SW8.0 kmh SW 14.0 mph22.5 kmh 30.11 in1019.6 mb 0.00 in0.0 mm 0.00 in0.0 mm 0.00 in0.0 mm
02:00 AM 67.5°F19.7°C 57.7°F14.3°C 71% 5.0 mph SW8.0 kmh SW 10.0 mph16.1 kmh 30.11 in1019.6 mb 0.00 in0.0 mm 0.00 in0.0 mm 0.00 in0.0 mm
01:50 AM 67.6°F19.8°C 56.7°F13.7°C 68% 5.0 mph SSW8.0 kmh SSW 9.0 mph14.5 kmh 30.12 in1020.0 mb 0.00 in0.0 mm 0.00 in0.0 mm 0.00 in0.0 mm
01:40 AM 67.8°F19.9°C 57.0°F13.9°C 68% 6.0 mph SSW9.7 kmh SSW 9.0 mph14.5 kmh 30.12 in1020.0 mb 0.00 in0.0 mm 0.00 in0.0 mm 0.00 in0.0 mm
01:30 AM 68.0°F20.0°C 56.7°F13.7°C 67% 6.0 mph SSW9.7 kmh SSW 13.0 mph20.9 kmh 30.12 in1020.0 mb 0.00 in0.0 mm 0.00 in0.0 mm 0.00 in0.0 mm
01:20 AM 67.8°F19.9°C 57.2°F14.0°C 69% 6.0 mph SSW9.7 kmh SSW 10.0 mph16.1 kmh 30.13 in1020.3 mb 0.00 in0.0 mm 0.00 in0.0 mm 0.00 in0.0 mm
01:10 AM 67.8°F19.9°C 57.2°F14.0°C 69% 6.0 mph SSW9.7 kmh SSW 13.0 mph20.9 kmh 30.13 in1020.3 mb 0.00 in0.0 mm 0.00 in0.0 mm 0.00 in0.0 mm
01:00 AM 67.6°F19.8°C 57.6°F14.2°C 70% 6.0 mph SSW9.7 kmh SSW 10.0 mph16.1 kmh 30.12 in1020.0 mb 0.00 in0.0 mm 0.00 in0.0 mm 0.00 in0.0 mm
12:50 AM 68.0°F20.0°C 57.9°F14.4°C 70% 6.0 mph SSW9.7 kmh SSW 10.0 mph16.1 kmh 30.13 in1020.3 mb 0.00 in0.0 mm 0.00 in0.0 mm 0.00 in0.0 mm
12:40 AM 68.4°F20.2°C 57.7°F14.3°C 69% 6.0 mph SSW9.7 kmh SSW 11.0 mph17.7 kmh 30.13 in1020.3 mb 0.00 in0.0 mm 0.00 in0.0 mm 0.00 in0.0 mm
12:30 AM 68.5°F20.3°C 57.0°F13.9°C 67% 7.0 mph SSW11.3 kmh SSW 13.0 mph20.9 kmh 30.13 in1020.3 mb 0.00 in0.0 mm 0.00 in0.0 mm 0.00 in0.0 mm
12:20 AM 68.5°F20.3°C 57.0°F13.9°C 67% 6.0 mph SSW9.7 kmh SSW 13.0 mph20.9 kmh 30.13 in1020.3 mb 0.00 in0.0 mm 0.00 in0.0 mm 0.00 in0.0 mm
12:10 AM 68.7°F20.4°C 57.7°F14.3°C 68% 6.0 mph SSW9.7 kmh SSW 11.0 mph17.7 kmh 30.12 in1020.0 mb 0.00 in0.0 mm 0.00 in0.0 mm 0.00 in0.0 mm
12:00 AM 68.5°F20.3°C 57.6°F14.2°C 68% 6.0 mph SSW9.7 kmh SSW 12.0 mph19.3 kmh 30.12 in1020.0 mb 0.00 in0.0 mm 0.00 in0.0 mm 0.00 in0.0 mm